sensor_id;sensor_type;location;lat;lon;timestamp;P1;durP1;ratioP1;P2;durP2;ratioP2
2257;SDS011;1136;51.574;7.706;2022-08-19T00:01:57;10.50;;;9.70;;
2257;SDS011;1136;51.574;7.706;2022-08-19T00:04:26;10.60;;;9.70;;
2257;SDS011;1136;51.574;7.706;2022-08-19T00:06:56;10.20;;;9.40;;
2257;SDS011;1136;51.574;7.706;2022-08-19T00:09:23;10.53;;;9.67;;
2257;SDS011;1136;51.574;7.706;2022-08-19T00:11:51;11.90;;;10.87;;
2257;SDS011;1136;51.574;7.706;2022-08-19T00:14:18;11.10;;;10.03;;
2257;SDS011;1136;51.574;7.706;2022-08-19T00:16:47;11.30;;;10.40;;
2257;SDS011;1136;51.574;7.706;2022-08-19T00:19:14;10.87;;;9.97;;
2257;SDS011;1136;51.574;7.706;2022-08-19T00:21:41;11.33;;;10.47;;
2257;SDS011;1136;51.574;7.706;2022-08-19T00:24:10;11.30;;;10.47;;
2257;SDS011;1136;51.574;7.706;2022-08-19T00:26:39;11.03;;;10.10;;
2257;SDS011;1136;51.574;7.706;2022-08-19T00:29:07;12.67;;;11.53;;
2257;SDS011;1136;51.574;7.706;2022-08-19T00:31:35;11.80;;;10.70;;
2257;SDS011;1136;51.574;7.706;2022-08-19T00:34:02;11.80;;;10.67;;
2257;SDS011;1136;51.574;7.706;2022-08-19T00:36:29;12.37;;;11.23;;
2257;SDS011;1136;51.574;7.706;2022-08-19T00:38:55;11.80;;;10.90;;
2257;SDS011;1136;51.574;7.706;2022-08-19T00:41:23;12.07;;;11.10;;
2257;SDS011;1136;51.574;7.706;2022-08-19T00:43:58;11.63;;;10.73;;
2257;SDS011;1136;51.574;7.706;2022-08-19T00:46:25;12.53;;;11.53;;
2257;SDS011;1136;51.574;7.706;2022-08-19T00:48:52;12.50;;;11.30;;
2257;SDS011;1136;51.574;7.706;2022-08-19T00:51:19;12.03;;;10.97;;
2257;SDS011;1136;51.574;7.706;2022-08-19T00:53:46;12.57;;;11.57;;
2257;SDS011;1136;51.574;7.706;2022-08-19T00:56:12;13.60;;;12.40;;
2257;SDS011;1136;51.574;7.706;2022-08-19T00:58:39;12.10;;;11.10;;
2257;SDS011;1136;51.574;7.706;2022-08-19T01:01:07;12.23;;;11.10;;
2257;SDS011;1136;51.574;7.706;2022-08-19T01:03:34;13.07;;;11.97;;
2257;SDS011;1136;51.574;7.706;2022-08-19T01:06:20;10.60;;;9.70;;
2257;SDS011;1136;51.574;7.706;2022-08-19T01:08:47;13.10;;;12.00;;
2257;SDS011;1136;51.574;7.706;2022-08-19T01:11:15;12.60;;;11.50;;
2257;SDS011;1136;51.574;7.706;2022-08-19T01:13:42;10.47;;;9.63;;
2257;SDS011;1136;51.574;7.706;2022-08-19T01:16:14;11.50;;;10.40;;
2257;SDS011;1136;51.574;7.706;2022-08-19T01:18:43;10.73;;;9.73;;
2257;SDS011;1136;51.574;7.706;2022-08-19T01:21:57;10.90;;;9.90;;
2257;SDS011;1136;51.574;7.706;2022-08-19T01:24:11;12.03;;;11.10;;
2257;SDS011;1136;51.574;7.706;2022-08-19T01:26:41;12.10;;;11.20;;
2257;SDS011;1136;51.574;7.706;2022-08-19T01:29:12;11.73;;;10.67;;
2257;SDS011;1136;51.574;7.706;2022-08-19T01:31:40;11.03;;;10.23;;
2257;SDS011;1136;51.574;7.706;2022-08-19T01:34:07;11.23;;;10.23;;
2257;SDS011;1136;51.574;7.706;2022-08-19T01:36:43;11.43;;;10.50;;
2257;SDS011;1136;51.574;7.706;2022-08-19T01:39:12;12.47;;;11.47;;
2257;SDS011;1136;51.574;7.706;2022-08-19T01:41:42;13.10;;;11.90;;
2257;SDS011;1136;51.574;7.706;2022-08-19T01:44:09;11.60;;;10.70;;
2257;SDS011;1136;51.574;7.706;2022-08-19T01:46:44;11.70;;;10.70;;
2257;SDS011;1136;51.574;7.706;2022-08-19T01:49:13;11.90;;;11.00;;
2257;SDS011;1136;51.574;7.706;2022-08-19T01:51:40;13.30;;;11.97;;
2257;SDS011;1136;51.574;7.706;2022-08-19T01:54:07;12.43;;;11.47;;
2257;SDS011;1136;51.574;7.706;2022-08-19T01:56:35;13.80;;;12.67;;
2257;SDS011;1136;51.574;7.706;2022-08-19T01:59:03;13.13;;;11.97;;
2257;SDS011;1136;51.574;7.706;2022-08-19T02:01:31;13.87;;;12.87;;
2257;SDS011;1136;51.574;7.706;2022-08-19T02:03:58;12.20;;;11.30;;
2257;SDS011;1136;51.574;7.706;2022-08-19T02:06:27;11.70;;;10.73;;
2257;SDS011;1136;51.574;7.706;2022-08-19T02:08:55;12.90;;;11.70;;
2257;SDS011;1136;51.574;7.706;2022-08-19T02:11:24;15.10;;;13.80;;
2257;SDS011;1136;51.574;7.706;2022-08-19T02:13:53;12.53;;;11.53;;
2257;SDS011;1136;51.574;7.706;2022-08-19T02:16:21;12.50;;;11.60;;
2257;SDS011;1136;51.574;7.706;2022-08-19T02:18:48;13.03;;;11.90;;
2257;SDS011;1136;51.574;7.706;2022-08-19T02:21:15;14.53;;;13.23;;
2257;SDS011;1136;51.574;7.706;2022-08-19T02:23:43;13.07;;;11.87;;
2257;SDS011;1136;51.574;7.706;2022-08-19T02:26:10;15.23;;;13.93;;
2257;SDS011;1136;51.574;7.706;2022-08-19T02:28:37;14.10;;;12.80;;
2257;SDS011;1136;51.574;7.706;2022-08-19T02:31:08;12.77;;;11.73;;
2257;SDS011;1136;51.574;7.706;2022-08-19T02:33:41;14.13;;;13.00;;
2257;SDS011;1136;51.574;7.706;2022-08-19T02:36:08;14.10;;;12.80;;
2257;SDS011;1136;51.574;7.706;2022-08-19T02:38:37;15.17;;;13.80;;
2257;SDS011;1136;51.574;7.706;2022-08-19T02:41:05;16.17;;;14.60;;
2257;SDS011;1136;51.574;7.706;2022-08-19T02:43:36;14.00;;;12.80;;
2257;SDS011;1136;51.574;7.706;2022-08-19T02:46:17;14.57;;;13.37;;
2257;SDS011;1136;51.574;7.706;2022-08-19T02:48:50;13.57;;;12.57;;
2257;SDS011;1136;51.574;7.706;2022-08-19T02:51:19;15.10;;;13.80;;
2257;SDS011;1136;51.574;7.706;2022-08-19T02:53:48;14.43;;;13.17;;
2257;SDS011;1136;51.574;7.706;2022-08-19T02:56:14;13.47;;;12.37;;
2257;SDS011;1136;51.574;7.706;2022-08-19T02:58:41;13.57;;;12.37;;
2257;SDS011;1136;51.574;7.706;2022-08-19T03:01:10;14.47;;;13.03;;
2257;SDS011;1136;51.574;7.706;2022-08-19T03:03:37;14.50;;;13.40;;
2257;SDS011;1136;51.574;7.706;2022-08-19T03:06:10;12.20;;;11.30;;
2257;SDS011;1136;51.574;7.706;2022-08-19T03:08:40;13.87;;;12.77;;
2257;SDS011;1136;51.574;7.706;2022-08-19T03:11:22;14.43;;;13.30;;
2257;SDS011;1136;51.574;7.706;2022-08-19T03:13:50;14.80;;;13.30;;
2257;SDS011;1136;51.574;7.706;2022-08-19T03:16:17;13.57;;;12.33;;
2257;SDS011;1136;51.574;7.706;2022-08-19T03:18:44;15.50;;;14.20;;
2257;SDS011;1136;51.574;7.706;2022-08-19T03:21:18;15.90;;;14.47;;
2257;SDS011;1136;51.574;7.706;2022-08-19T03:23:46;15.10;;;13.80;;
2257;SDS011;1136;51.574;7.706;2022-08-19T03:26:13;14.93;;;13.73;;
2257;SDS011;1136;51.574;7.706;2022-08-19T03:28:45;14.50;;;13.30;;
2257;SDS011;1136;51.574;7.706;2022-08-19T03:31:24;16.97;;;15.57;;
2257;SDS011;1136;51.574;7.706;2022-08-19T03:34:15;15.33;;;13.93;;
2257;SDS011;1136;51.574;7.706;2022-08-19T03:36:45;15.70;;;14.40;;
2257;SDS011;1136;51.574;7.706;2022-08-19T03:39:13;16.50;;;15.00;;
2257;SDS011;1136;51.574;7.706;2022-08-19T03:41:40;16.73;;;15.20;;
2257;SDS011;1136;51.574;7.706;2022-08-19T03:44:19;16.40;;;14.80;;
2257;SDS011;1136;51.574;7.706;2022-08-19T03:46:49;16.13;;;14.70;;
2257;SDS011;1136;51.574;7.706;2022-08-19T03:49:18;16.73;;;15.13;;
2257;SDS011;1136;51.574;7.706;2022-08-19T03:51:47;19.03;;;17.30;;
2257;SDS011;1136;51.574;7.706;2022-08-19T03:54:15;18.67;;;16.97;;
2257;SDS011;1136;51.574;7.706;2022-08-19T03:56:45;20.17;;;18.47;;
2257;SDS011;1136;51.574;7.706;2022-08-19T03:59:14;20.17;;;18.40;;
2257;SDS011;1136;51.574;7.706;2022-08-19T04:01:42;19.03;;;17.33;;
2257;SDS011;1136;51.574;7.706;2022-08-19T04:04:10;19.60;;;17.90;;
2257;SDS011;1136;51.574;7.706;2022-08-19T04:06:37;22.80;;;20.80;;
2257;SDS011;1136;51.574;7.706;2022-08-19T04:09:08;23.77;;;21.07;;
2257;SDS011;1136;51.574;7.706;2022-08-19T04:11:46;20.93;;;19.10;;
2257;SDS011;1136;51.574;7.706;2022-08-19T04:14:17;20.20;;;18.20;;
2257;SDS011;1136;51.574;7.706;2022-08-19T04:16:46;23.80;;;19.90;;
2257;SDS011;1136;51.574;7.706;2022-08-19T04:19:14;20.43;;;18.37;;
2257;SDS011;1136;51.574;7.706;2022-08-19T04:21:42;20.47;;;18.53;;
2257;SDS011;1136;51.574;7.706;2022-08-19T04:24:11;21.53;;;17.47;;
2257;SDS011;1136;51.574;7.706;2022-08-19T04:26:38;19.97;;;18.13;;
2257;SDS011;1136;51.574;7.706;2022-08-19T04:32:01;18.27;;;16.83;;
2257;SDS011;1136;51.574;7.706;2022-08-19T04:34:35;19.17;;;17.37;;
2257;SDS011;1136;51.574;7.706;2022-08-19T04:37:22;20.00;;;18.30;;
2257;SDS011;1136;51.574;7.706;2022-08-19T04:39:49;20.00;;;18.30;;
2257;SDS011;1136;51.574;7.706;2022-08-19T04:42:34;19.87;;;17.77;;
2257;SDS011;1136;51.574;7.706;2022-08-19T04:45:09;20.43;;;18.73;;
2257;SDS011;1136;51.574;7.706;2022-08-19T04:47:39;24.00;;;21.50;;
2257;SDS011;1136;51.574;7.706;2022-08-19T04:50:23;24.30;;;21.90;;
2257;SDS011;1136;51.574;7.706;2022-08-19T04:52:51;21.87;;;19.53;;
2257;SDS011;1136;51.574;7.706;2022-08-19T04:55:18;21.30;;;19.30;;
2257;SDS011;1136;51.574;7.706;2022-08-19T04:57:45;25.40;;;22.83;;
2257;SDS011;1136;51.574;7.706;2022-08-19T05:00:12;27.07;;;24.60;;
2257;SDS011;1136;51.574;7.706;2022-08-19T05:02:38;26.07;;;23.57;;
2257;SDS011;1136;51.574;7.706;2022-08-19T05:05:05;24.43;;;22.03;;
2257;SDS011;1136;51.574;7.706;2022-08-19T05:07:33;25.00;;;22.70;;
2257;SDS011;1136;51.574;7.706;2022-08-19T05:09:59;25.27;;;22.77;;
2257;SDS011;1136;51.574;7.706;2022-08-19T05:12:26;27.13;;;24.43;;
2257;SDS011;1136;51.574;7.706;2022-08-19T05:14:55;28.60;;;25.70;;
2257;SDS011;1136;51.574;7.706;2022-08-19T05:17:24;30.50;;;26.20;;
2257;SDS011;1136;51.574;7.706;2022-08-19T05:19:55;27.40;;;24.40;;
2257;SDS011;1136;51.574;7.706;2022-08-19T05:22:42;26.57;;;24.00;;
2257;SDS011;1136;51.574;7.706;2022-08-19T05:25:12;27.37;;;23.70;;
2257;SDS011;1136;51.574;7.706;2022-08-19T05:27:41;26.97;;;24.33;;
2257;SDS011;1136;51.574;7.706;2022-08-19T05:30:09;27.17;;;24.37;;
2257;SDS011;1136;51.574;7.706;2022-08-19T05:32:37;27.53;;;24.83;;
2257;SDS011;1136;51.574;7.706;2022-08-19T05:35:05;26.73;;;24.33;;
2257;SDS011;1136;51.574;7.706;2022-08-19T05:37:32;26.20;;;23.70;;
2257;SDS011;1136;51.574;7.706;2022-08-19T05:39:59;31.73;;;27.67;;
2257;SDS011;1136;51.574;7.706;2022-08-19T05:42:26;28.50;;;25.80;;
2257;SDS011;1136;51.574;7.706;2022-08-19T05:44:52;29.43;;;26.47;;
2257;SDS011;1136;51.574;7.706;2022-08-19T05:47:19;32.03;;;28.73;;
2257;SDS011;1136;51.574;7.706;2022-08-19T05:49:47;30.60;;;27.73;;
2257;SDS011;1136;51.574;7.706;2022-08-19T05:52:14;28.33;;;25.77;;
2257;SDS011;1136;51.574;7.706;2022-08-19T05:54:50;30.40;;;27.40;;
2257;SDS011;1136;51.574;7.706;2022-08-19T05:57:18;29.63;;;26.93;;
2257;SDS011;1136;51.574;7.706;2022-08-19T05:59:45;26.73;;;24.03;;
2257;SDS011;1136;51.574;7.706;2022-08-19T06:02:11;33.20;;;25.30;;
2257;SDS011;1136;51.574;7.706;2022-08-19T06:04:39;28.70;;;25.60;;
2257;SDS011;1136;51.574;7.706;2022-08-19T06:07:08;28.97;;;25.80;;
2257;SDS011;1136;51.574;7.706;2022-08-19T06:09:38;29.37;;;24.87;;
2257;SDS011;1136;51.574;7.706;2022-08-19T06:12:05;31.83;;;26.10;;
2257;SDS011;1136;51.574;7.706;2022-08-19T06:14:33;28.90;;;25.73;;
2257;SDS011;1136;51.574;7.706;2022-08-19T06:17:07;28.90;;;26.03;;
2257;SDS011;1136;51.574;7.706;2022-08-19T06:19:34;29.40;;;26.23;;
2257;SDS011;1136;51.574;7.706;2022-08-19T06:22:06;28.40;;;25.70;;
2257;SDS011;1136;51.574;7.706;2022-08-19T06:24:34;29.43;;;26.37;;
2257;SDS011;1136;51.574;7.706;2022-08-19T06:27:02;29.37;;;26.43;;
2257;SDS011;1136;51.574;7.706;2022-08-19T06:29:29;28.77;;;26.03;;
2257;SDS011;1136;51.574;7.706;2022-08-19T06:31:56;29.43;;;26.53;;
2257;SDS011;1136;51.574;7.706;2022-08-19T06:34:26;29.30;;;26.43;;
2257;SDS011;1136;51.574;7.706;2022-08-19T06:36:54;29.43;;;26.33;;
2257;SDS011;1136;51.574;7.706;2022-08-19T06:39:26;29.90;;;26.90;;
2257;SDS011;1136;51.574;7.706;2022-08-19T06:41:56;31.10;;;27.80;;
2257;SDS011;1136;51.574;7.706;2022-08-19T06:44:25;33.10;;;27.80;;
2257;SDS011;1136;51.574;7.706;2022-08-19T06:46:55;33.33;;;28.17;;
2257;SDS011;1136;51.574;7.706;2022-08-19T06:49:22;34.43;;;26.37;;
2257;SDS011;1136;51.574;7.706;2022-08-19T06:51:49;31.13;;;28.00;;
2257;SDS011;1136;51.574;7.706;2022-08-19T06:54:17;31.97;;;28.67;;
2257;SDS011;1136;51.574;7.706;2022-08-19T06:56:46;35.40;;;28.53;;
2257;SDS011;1136;51.574;7.706;2022-08-19T06:59:14;35.17;;;27.63;;
2257;SDS011;1136;51.574;7.706;2022-08-19T07:01:44;32.67;;;29.47;;
2257;SDS011;1136;51.574;7.706;2022-08-19T07:04:16;30.07;;;27.30;;
2257;SDS011;1136;51.574;7.706;2022-08-19T07:06:44;29.60;;;26.60;;
2257;SDS011;1136;51.574;7.706;2022-08-19T07:09:20;33.93;;;27.60;;
2257;SDS011;1136;51.574;7.706;2022-08-19T07:11:48;31.80;;;28.50;;
2257;SDS011;1136;51.574;7.706;2022-08-19T07:14:16;28.87;;;25.90;;
2257;SDS011;1136;51.574;7.706;2022-08-19T07:16:45;29.60;;;26.53;;
2257;SDS011;1136;51.574;7.706;2022-08-19T07:19:15;31.50;;;28.13;;
2257;SDS011;1136;51.574;7.706;2022-08-19T07:21:45;31.37;;;27.70;;
2257;SDS011;1136;51.574;7.706;2022-08-19T07:24:13;29.73;;;26.87;;
2257;SDS011;1136;51.574;7.706;2022-08-19T07:26:41;37.43;;;30.27;;
2257;SDS011;1136;51.574;7.706;2022-08-19T07:29:09;32.63;;;29.23;;
2257;SDS011;1136;51.574;7.706;2022-08-19T07:31:36;36.27;;;30.20;;
2257;SDS011;1136;51.574;7.706;2022-08-19T07:34:05;37.00;;;30.50;;
2257;SDS011;1136;51.574;7.706;2022-08-19T07:36:37;29.80;;;26.97;;
2257;SDS011;1136;51.574;7.706;2022-08-19T07:39:14;31.33;;;28.37;;
2257;SDS011;1136;51.574;7.706;2022-08-19T07:41:51;35.17;;;31.43;;
2257;SDS011;1136;51.574;7.706;2022-08-19T07:44:18;35.00;;;31.40;;
2257;SDS011;1136;51.574;7.706;2022-08-19T07:46:48;32.50;;;29.10;;
2257;SDS011;1136;51.574;7.706;2022-08-19T07:49:18;33.37;;;29.80;;
2257;SDS011;1136;51.574;7.706;2022-08-19T07:51:50;31.53;;;28.43;;
2257;SDS011;1136;51.574;7.706;2022-08-19T07:54:22;36.53;;;32.50;;
2257;SDS011;1136;51.574;7.706;2022-08-19T07:56:50;31.93;;;28.60;;
2257;SDS011;1136;51.574;7.706;2022-08-19T07:59:18;30.27;;;27.30;;
2257;SDS011;1136;51.574;7.706;2022-08-19T08:01:45;30.13;;;27.33;;
2257;SDS011;1136;51.574;7.706;2022-08-19T08:04:12;32.10;;;27.57;;
2257;SDS011;1136;51.574;7.706;2022-08-19T08:06:58;29.80;;;23.03;;
2257;SDS011;1136;51.574;7.706;2022-08-19T08:09:44;27.50;;;24.67;;
2257;SDS011;1136;51.574;7.706;2022-08-19T08:12:17;27.27;;;24.50;;
2257;SDS011;1136;51.574;7.706;2022-08-19T08:15:02;23.70;;;21.37;;
2257;SDS011;1136;51.574;7.706;2022-08-19T08:17:37;27.77;;;22.17;;
2257;SDS011;1136;51.574;7.706;2022-08-19T08:20:17;26.73;;;23.97;;
2257;SDS011;1136;51.574;7.706;2022-08-19T08:22:45;24.77;;;22.33;;
2257;SDS011;1136;51.574;7.706;2022-08-19T08:25:31;27.90;;;21.80;;
2257;SDS011;1136;51.574;7.706;2022-08-19T08:27:59;21.40;;;18.70;;
2257;SDS011;1136;51.574;7.706;2022-08-19T08:30:27;20.60;;;18.63;;
2257;SDS011;1136;51.574;7.706;2022-08-19T08:32:58;18.50;;;16.53;;
2257;SDS011;1136;51.574;7.706;2022-08-19T08:35:25;19.67;;;17.60;;
2257;SDS011;1136;51.574;7.706;2022-08-19T08:37:53;18.80;;;15.10;;
2257;SDS011;1136;51.574;7.706;2022-08-19T08:40:26;17.50;;;15.80;;
2257;SDS011;1136;51.574;7.706;2022-08-19T08:43:14;15.70;;;14.23;;
2257;SDS011;1136;51.574;7.706;2022-08-19T08:45:46;13.80;;;12.40;;
2257;SDS011;1136;51.574;7.706;2022-08-19T08:48:20;14.10;;;12.37;;
2257;SDS011;1136;51.574;7.706;2022-08-19T08:50:51;15.20;;;13.83;;
2257;SDS011;1136;51.574;7.706;2022-08-19T08:53:19;13.30;;;11.77;;
2257;SDS011;1136;51.574;7.706;2022-08-19T08:55:55;12.87;;;11.87;;
2257;SDS011;1136;51.574;7.706;2022-08-19T08:58:43;13.33;;;12.13;;
2257;SDS011;1136;51.574;7.706;2022-08-19T09:01:20;12.40;;;11.20;;
2257;SDS011;1136;51.574;7.706;2022-08-19T09:03:47;11.47;;;10.40;;
2257;SDS011;1136;51.574;7.706;2022-08-19T09:14:57;14.23;;;13.23;;
2257;SDS011;1136;51.574;7.706;2022-08-19T09:17:27;20.93;;;14.40;;
2257;SDS011;1136;51.574;7.706;2022-08-19T09:22:39;12.33;;;11.30;;
2257;SDS011;1136;51.574;7.706;2022-08-19T09:25:08;12.10;;;11.20;;
2257;SDS011;1136;51.574;7.706;2022-08-19T09:27:37;11.00;;;10.10;;
2257;SDS011;1136;51.574;7.706;2022-08-19T09:30:14;11.87;;;10.77;;
2257;SDS011;1136;51.574;7.706;2022-08-19T09:32:43;12.10;;;11.10;;
2257;SDS011;1136;51.574;7.706;2022-08-19T09:35:10;13.70;;;12.60;;
2257;SDS011;1136;51.574;7.706;2022-08-19T09:37:38;11.67;;;10.67;;
2257;SDS011;1136;51.574;7.706;2022-08-19T09:40:06;16.33;;;11.67;;
2257;SDS011;1136;51.574;7.706;2022-08-19T09:42:37;12.43;;;11.43;;
2257;SDS011;1136;51.574;7.706;2022-08-19T09:45:15;13.60;;;12.60;;
2257;SDS011;1136;51.574;7.706;2022-08-19T09:47:44;12.77;;;11.70;;
2257;SDS011;1136;51.574;7.706;2022-08-19T09:50:12;12.67;;;11.77;;
2257;SDS011;1136;51.574;7.706;2022-08-19T09:52:41;11.97;;;11.13;;
2257;SDS011;1136;51.574;7.706;2022-08-19T09:55:20;10.70;;;9.93;;
2257;SDS011;1136;51.574;7.706;2022-08-19T09:57:49;11.60;;;10.77;;
2257;SDS011;1136;51.574;7.706;2022-08-19T10:00:16;12.03;;;11.00;;
2257;SDS011;1136;51.574;7.706;2022-08-19T10:02:42;14.67;;;13.70;;
2257;SDS011;1136;51.574;7.706;2022-08-19T10:05:10;16.43;;;15.23;;
2257;SDS011;1136;51.574;7.706;2022-08-19T10:07:56;16.97;;;15.23;;
2257;SDS011;1136;51.574;7.706;2022-08-19T10:10:22;13.67;;;12.47;;
2257;SDS011;1136;51.574;7.706;2022-08-19T10:12:50;9.93;;;9.23;;
2257;SDS011;1136;51.574;7.706;2022-08-19T10:15:17;9.00;;;8.30;;
2257;SDS011;1136;51.574;7.706;2022-08-19T10:17:54;9.87;;;9.20;;
2257;SDS011;1136;51.574;7.706;2022-08-19T10:20:24;9.97;;;9.07;;
2257;SDS011;1136;51.574;7.706;2022-08-19T10:22:51;8.77;;;8.17;;
2257;SDS011;1136;51.574;7.706;2022-08-19T10:25:18;13.00;;;12.20;;
2257;SDS011;1136;51.574;7.706;2022-08-19T10:27:45;12.53;;;11.73;;
2257;SDS011;1136;51.574;7.706;2022-08-19T10:30:17;9.47;;;8.87;;
2257;SDS011;1136;51.574;7.706;2022-08-19T10:32:45;11.37;;;10.60;;
2257;SDS011;1136;51.574;7.706;2022-08-19T10:35:13;12.73;;;11.70;;
2257;SDS011;1136;51.574;7.706;2022-08-19T10:37:47;11.97;;;10.97;;
2257;SDS011;1136;51.574;7.706;2022-08-19T10:40:27;12.33;;;11.33;;
2257;SDS011;1136;51.574;7.706;2022-08-19T10:42:54;10.63;;;9.53;;
2257;SDS011;1136;51.574;7.706;2022-08-19T10:45:22;9.13;;;8.60;;
2257;SDS011;1136;51.574;7.706;2022-08-19T10:47:53;9.60;;;9.00;;
2257;SDS011;1136;51.574;7.706;2022-08-19T10:50:20;8.67;;;8.07;;
2257;SDS011;1136;51.574;7.706;2022-08-19T10:53:07;8.30;;;7.80;;
2257;SDS011;1136;51.574;7.706;2022-08-19T10:55:35;13.10;;;12.20;;
2257;SDS011;1136;51.574;7.706;2022-08-19T10:58:20;8.50;;;7.73;;
2257;SDS011;1136;51.574;7.706;2022-08-19T11:00:53;10.60;;;9.90;;
2257;SDS011;1136;51.574;7.706;2022-08-19T11:03:22;10.27;;;9.57;;
2257;SDS011;1136;51.574;7.706;2022-08-19T11:08:45;9.50;;;8.90;;
2257;SDS011;1136;51.574;7.706;2022-08-19T11:11:12;10.20;;;9.40;;
2257;SDS011;1136;51.574;7.706;2022-08-19T11:13:39;9.53;;;8.70;;
2257;SDS011;1136;51.574;7.706;2022-08-19T11:16:08;9.70;;;8.80;;
2257;SDS011;1136;51.574;7.706;2022-08-19T11:18:37;10.77;;;10.07;;
2257;SDS011;1136;51.574;7.706;2022-08-19T11:21:21;12.50;;;11.57;;
2257;SDS011;1136;51.574;7.706;2022-08-19T11:23:54;11.63;;;10.83;;
2257;SDS011;1136;51.574;7.706;2022-08-19T11:26:23;12.60;;;11.70;;
2257;SDS011;1136;51.574;7.706;2022-08-19T11:28:50;11.13;;;10.30;;
2257;SDS011;1136;51.574;7.706;2022-08-19T11:31:21;10.80;;;9.53;;
2257;SDS011;1136;51.574;7.706;2022-08-19T11:33:56;9.20;;;8.50;;
2257;SDS011;1136;51.574;7.706;2022-08-19T11:36:23;10.20;;;9.40;;
2257;SDS011;1136;51.574;7.706;2022-08-19T11:38:50;8.80;;;8.10;;
2257;SDS011;1136;51.574;7.706;2022-08-19T11:41:18;8.20;;;7.70;;
2257;SDS011;1136;51.574;7.706;2022-08-19T11:43:45;6.50;;;6.07;;
2257;SDS011;1136;51.574;7.706;2022-08-19T11:46:13;7.13;;;6.23;;
2257;SDS011;1136;51.574;7.706;2022-08-19T11:48:40;9.47;;;8.90;;
2257;SDS011;1136;51.574;7.706;2022-08-19T11:51:09;10.13;;;9.43;;
2257;SDS011;1136;51.574;7.706;2022-08-19T11:53:37;12.10;;;11.40;;
2257;SDS011;1136;51.574;7.706;2022-08-19T11:56:05;11.03;;;10.33;;
2257;SDS011;1136;51.574;7.706;2022-08-19T11:58:33;10.47;;;9.77;;
2257;SDS011;1136;51.574;7.706;2022-08-19T12:01:00;10.17;;;9.20;;
2257;SDS011;1136;51.574;7.706;2022-08-19T12:03:27;11.53;;;10.43;;
2257;SDS011;1136;51.574;7.706;2022-08-19T12:05:54;11.00;;;10.20;;
2257;SDS011;1136;51.574;7.706;2022-08-19T12:08:21;9.60;;;9.10;;
2257;SDS011;1136;51.574;7.706;2022-08-19T12:10:47;10.47;;;9.67;;
2257;SDS011;1136;51.574;7.706;2022-08-19T12:13:14;10.43;;;9.73;;
2257;SDS011;1136;51.574;7.706;2022-08-19T12:15:45;10.50;;;9.70;;
2257;SDS011;1136;51.574;7.706;2022-08-19T12:18:13;9.40;;;8.80;;
2257;SDS011;1136;51.574;7.706;2022-08-19T12:20:41;10.93;;;10.10;;
2257;SDS011;1136;51.574;7.706;2022-08-19T12:23:09;10.70;;;9.90;;
2257;SDS011;1136;51.574;7.706;2022-08-19T12:25:36;8.97;;;8.27;;
2257;SDS011;1136;51.574;7.706;2022-08-19T12:28:04;9.97;;;9.37;;
2257;SDS011;1136;51.574;7.706;2022-08-19T12:30:30;10.27;;;9.57;;
2257;SDS011;1136;51.574;7.706;2022-08-19T12:32:57;9.23;;;8.63;;
2257;SDS011;1136;51.574;7.706;2022-08-19T12:35:25;9.97;;;9.17;;
2257;SDS011;1136;51.574;7.706;2022-08-19T12:37:51;9.63;;;8.73;;
2257;SDS011;1136;51.574;7.706;2022-08-19T12:40:22;9.50;;;8.73;;
2257;SDS011;1136;51.574;7.706;2022-08-19T12:42:51;9.53;;;8.77;;
2257;SDS011;1136;51.574;7.706;2022-08-19T12:45:19;8.37;;;7.73;;
2257;SDS011;1136;51.574;7.706;2022-08-19T12:47:46;11.20;;;9.20;;
2257;SDS011;1136;51.574;7.706;2022-08-19T12:54:33;8.27;;;7.47;;
2257;SDS011;1136;51.574;7.706;2022-08-19T12:57:04;8.33;;;7.77;;
2257;SDS011;1136;51.574;7.706;2022-08-19T12:59:31;7.73;;;6.93;;
2257;SDS011;1136;51.574;7.706;2022-08-19T13:01:58;8.37;;;7.67;;
2257;SDS011;1136;51.574;7.706;2022-08-19T13:04:27;8.53;;;7.93;;
2257;SDS011;1136;51.574;7.706;2022-08-19T13:06:54;10.60;;;9.77;;
2257;SDS011;1136;51.574;7.706;2022-08-19T13:09:20;9.77;;;9.07;;
2257;SDS011;1136;51.574;7.706;2022-08-19T13:11:47;9.77;;;8.97;;
2257;SDS011;1136;51.574;7.706;2022-08-19T13:14:13;9.70;;;9.00;;
2257;SDS011;1136;51.574;7.706;2022-08-19T13:16:40;9.23;;;8.63;;
2257;SDS011;1136;51.574;7.706;2022-08-19T13:19:07;9.97;;;9.40;;
2257;SDS011;1136;51.574;7.706;2022-08-19T13:21:34;9.73;;;9.03;;
2257;SDS011;1136;51.574;7.706;2022-08-19T13:24:01;11.17;;;10.20;;
2257;SDS011;1136;51.574;7.706;2022-08-19T13:26:28;10.23;;;9.33;;
2257;SDS011;1136;51.574;7.706;2022-08-19T13:28:55;9.07;;;8.47;;
2257;SDS011;1136;51.574;7.706;2022-08-19T13:31:40;11.97;;;10.97;;
2257;SDS011;1136;51.574;7.706;2022-08-19T13:34:35;13.07;;;11.87;;
2257;SDS011;1136;51.574;7.706;2022-08-19T13:37:03;12.97;;;11.93;;
2257;SDS011;1136;51.574;7.706;2022-08-19T13:39:34;12.90;;;11.87;;
2257;SDS011;1136;51.574;7.706;2022-08-19T13:42:01;11.70;;;10.57;;
2257;SDS011;1136;51.574;7.706;2022-08-19T13:44:29;9.50;;;8.90;;
2257;SDS011;1136;51.574;7.706;2022-08-19T13:47:05;11.57;;;10.67;;
2257;SDS011;1136;51.574;7.706;2022-08-19T13:49:33;10.57;;;9.87;;
2257;SDS011;1136;51.574;7.706;2022-08-19T13:52:03;11.37;;;10.27;;
2257;SDS011;1136;51.574;7.706;2022-08-19T13:54:30;11.57;;;10.67;;
2257;SDS011;1136;51.574;7.706;2022-08-19T13:56:56;13.40;;;12.27;;
2257;SDS011;1136;51.574;7.706;2022-08-19T13:59:23;11.90;;;11.00;;
2257;SDS011;1136;51.574;7.706;2022-08-19T14:01:50;12.00;;;11.10;;
2257;SDS011;1136;51.574;7.706;2022-08-19T14:04:17;10.57;;;9.47;;
2257;SDS011;1136;51.574;7.706;2022-08-19T14:06:44;10.50;;;9.70;;
2257;SDS011;1136;51.574;7.706;2022-08-19T14:09:10;9.60;;;8.90;;
2257;SDS011;1136;51.574;7.706;2022-08-19T14:11:37;9.47;;;8.67;;
2257;SDS011;1136;51.574;7.706;2022-08-19T14:14:04;11.13;;;10.17;;
2257;SDS011;1136;51.574;7.706;2022-08-19T14:16:31;10.20;;;9.23;;
2257;SDS011;1136;51.574;7.706;2022-08-19T14:18:57;9.60;;;8.90;;
2257;SDS011;1136;51.574;7.706;2022-08-19T14:21:24;10.70;;;9.90;;
2257;SDS011;1136;51.574;7.706;2022-08-19T14:23:51;10.20;;;8.80;;
2257;SDS011;1136;51.574;7.706;2022-08-19T14:26:19;10.10;;;9.40;;
2257;SDS011;1136;51.574;7.706;2022-08-19T14:28:47;10.47;;;9.60;;
2257;SDS011;1136;51.574;7.706;2022-08-19T14:31:14;11.00;;;10.10;;
2257;SDS011;1136;51.574;7.706;2022-08-19T14:33:48;9.70;;;9.10;;
2257;SDS011;1136;51.574;7.706;2022-08-19T14:36:15;11.07;;;10.07;;
2257;SDS011;1136;51.574;7.706;2022-08-19T14:38:41;10.87;;;9.87;;
2257;SDS011;1136;51.574;7.706;2022-08-19T14:43:44;10.10;;;9.30;;
2257;SDS011;1136;51.574;7.706;2022-08-19T14:46:17;11.30;;;10.30;;
2257;SDS011;1136;51.574;7.706;2022-08-19T14:48:46;10.97;;;9.97;;
2257;SDS011;1136;51.574;7.706;2022-08-19T14:51:17;9.40;;;8.50;;
2257;SDS011;1136;51.574;7.706;2022-08-19T14:53:44;11.13;;;10.40;;
2257;SDS011;1136;51.574;7.706;2022-08-19T14:56:12;10.10;;;9.50;;
2257;SDS011;1136;51.574;7.706;2022-08-19T14:58:40;10.10;;;9.30;;
2257;SDS011;1136;51.574;7.706;2022-08-19T15:01:08;9.80;;;9.10;;
2257;SDS011;1136;51.574;7.706;2022-08-19T15:03:35;10.70;;;9.90;;
2257;SDS011;1136;51.574;7.706;2022-08-19T15:06:03;11.00;;;10.20;;
2257;SDS011;1136;51.574;7.706;2022-08-19T15:08:31;10.10;;;9.30;;
2257;SDS011;1136;51.574;7.706;2022-08-19T15:11:00;10.23;;;9.43;;
2257;SDS011;1136;51.574;7.706;2022-08-19T15:13:27;9.90;;;9.20;;
2257;SDS011;1136;51.574;7.706;2022-08-19T15:15:55;11.33;;;10.53;;
2257;SDS011;1136;51.574;7.706;2022-08-19T15:18:23;10.60;;;9.80;;
2257;SDS011;1136;51.574;7.706;2022-08-19T15:20:50;10.60;;;9.90;;
2257;SDS011;1136;51.574;7.706;2022-08-19T15:23:17;10.40;;;9.60;;
2257;SDS011;1136;51.574;7.706;2022-08-19T15:25:45;10.60;;;9.80;;
2257;SDS011;1136;51.574;7.706;2022-08-19T15:28:12;11.37;;;10.33;;
2257;SDS011;1136;51.574;7.706;2022-08-19T15:30:40;10.87;;;9.63;;
2257;SDS011;1136;51.574;7.706;2022-08-19T15:33:07;9.40;;;8.70;;